Vlieland Island, Netherlands
Current Conditions -  °F | °C
As of 11:55 AM on Friday 24 Oct 2014 (Local Time) from EHVL Reporting Station
Haze Haze  
Wind Chill: 54°   Ceiling: 500
Heat Index: 54°   Visibility: 5mi
Dew Point: 52°   Wind: 21mph
Humidity: 94%   Direction: 190°S
Pressure: 30"   Gusts: NA
Location:  53.25°N, 4.92°E
Report Text: EHVL 240955Z AUTO 19018KT 8000 BR BKN005 OVC006 12/11 Q1016 YLO
Loading
Personal Weather Stations






























Interactive Weather Map
Tropical Storm Tracking
New forecast layout! Learn more

10-Day Weather Forecast

Advertisements
Track Severe Weather on mobile